Time;durP1;ratioP1;P1;durP2;ratioP2;P2;SDS_P1;SDS_P2;PMS_P1;PMS_P2;Temp;Humidity;BMP_temperature;BMP_pressure;BME280_temperature;BME280_humidity;BME280_pressure;Samples;Min_cycle;Max_cycle;Signal;HPM_P1;HPM_P2
2022/10/22 00:02:23;;;;;;;4.23;3.83;;;14.60;99.90;;;;;;4991221;28;20611;-83
2022/10/22 00:04:49;;;;;;;4.70;3.33;;;14.60;99.90;;;;;;4962145;28;20647;-84
2022/10/22 00:07:18;;;;;;;5.33;3.10;;;14.50;99.90;;;;;;4993918;28;20235;-85
2022/10/22 00:09:45;;;;;;;7.27;4.70;;;14.40;99.90;;;;;;4987710;28;20188;-83
2022/10/22 00:12:11;;;;;;;4.13;2.77;;;14.30;99.90;;;;;;5004183;28;20202;-83
2022/10/22 00:14:37;;;;;;;4.43;3.70;;;14.10;99.90;;;;;;4986916;28;20226;-83
2022/10/22 00:17:04;;;;;;;7.10;3.20;;;14.00;99.90;;;;;;4960053;28;20232;-83
2022/10/22 00:19:29;;;;;;;5.60;3.33;;;14.00;99.90;;;;;;4968256;28;20433;-85
2022/10/22 00:21:55;;;;;;;5.23;3.13;;;13.90;99.90;;;;;;4986004;28;21081;-85
2022/10/22 00:24:21;;;;;;;3.77;3.47;;;13.90;99.90;;;;;;4971504;28;20266;-82
2022/10/22 00:26:46;;;;;;;4.70;3.43;;;13.80;99.90;;;;;;4953690;28;20217;-82
2022/10/22 00:29:12;;;;;;;4.47;2.93;;;13.60;99.90;;;;;;4951202;28;20675;-83
2022/10/22 00:31:38;;;;;;;5.40;3.57;;;13.40;99.90;;;;;;4975989;28;20769;-84
2022/10/22 00:34:04;;;;;;;2.73;2.20;;;13.10;99.90;;;;;;4983819;28;20711;-85
2022/10/22 00:36:29;;;;;;;4.43;3.63;;;12.90;99.90;;;;;;4966849;28;20638;-82
2022/10/22 00:38:55;;;;;;;12.97;3.03;;;13.00;99.90;;;;;;4979963;28;20223;-83
2022/10/22 00:41:21;;;;;;;6.30;3.90;;;13.00;99.90;;;;;;4975880;28;20239;-84
2022/10/22 00:44:02;;;;;;;5.10;3.73;;;13.20;99.90;;;;;;4983576;28;20323;-86
2022/10/22 00:46:29;;;;;;;4.40;3.57;;;13.40;99.90;;;;;;4994766;28;20219;-84
2022/10/22 00:48:57;;;;;;;4.70;3.63;;;13.40;99.90;;;;;;4988253;28;20239;-83
2022/10/22 00:51:27;;;;;;;4.70;4.23;;;13.50;99.90;;;;;;4987134;28;20618;-83
2022/10/22 00:54:01;;;;;;;5.43;4.17;;;13.50;99.90;;;;;;4969147;28;20686;-83
2022/10/22 00:56:27;;;;;;;6.77;5.63;;;13.50;99.90;;;;;;4982937;28;20680;-85
2022/10/22 00:58:58;;;;;;;7.13;4.37;;;13.40;99.90;;;;;;4986430;28;20701;-84
2022/10/22 01:01:26;;;;;;;6.17;4.07;;;13.40;99.90;;;;;;4986696;28;20226;-84
2022/10/22 01:03:53;;;;;;;5.90;4.10;;;13.30;99.90;;;;;;4985636;28;20560;-83
2022/10/22 01:06:29;;;;;;;5.37;4.17;;;13.30;99.90;;;;;;4986245;28;20247;-83
2022/10/22 01:09:11;;;;;;;5.43;4.40;;;13.20;99.90;;;;;;4995364;28;20215;-84
2022/10/22 01:11:49;;;;;;;6.60;4.20;;;13.30;99.90;;;;;;4987623;28;20330;-85
2022/10/22 01:14:18;;;;;;;6.63;5.33;;;13.20;99.90;;;;;;4988020;28;20329;-83
2022/10/22 01:16:57;;;;;;;6.40;4.50;;;13.20;99.90;;;;;;4982903;28;20220;-85
2022/10/22 01:19:56;;;;;;;4.70;4.07;;;13.30;99.90;;;;;;4973035;28;20230;-84
2022/10/22 01:22:39;;;;;;;5.70;4.77;;;13.30;99.90;;;;;;4990118;28;20289;-85
2022/10/22 01:25:27;;;;;;;7.03;4.90;;;13.30;99.90;;;;;;4992454;28;20693;-85
2022/10/22 01:28:12;;;;;;;12.00;6.53;;;13.30;99.90;;;;;;4983882;28;20207;-83
2022/10/22 01:30:39;;;;;;;6.67;3.57;;;13.30;99.90;;;;;;4986898;28;20216;-84
2022/10/22 01:33:09;;;;;;;14.83;4.20;;;13.30;99.90;;;;;;4981465;28;20191;-83
2022/10/22 01:35:39;;;;;;;5.30;4.07;;;13.30;99.90;;;;;;4996224;28;20299;-84
2022/10/22 01:38:09;;;;;;;7.07;3.53;;;13.20;99.90;;;;;;4990903;28;20278;-86
2022/10/22 01:40:36;;;;;;;6.00;4.70;;;13.20;99.90;;;;;;4985842;28;20218;-85
2022/10/22 01:43:04;;;;;;;4.47;4.07;;;13.10;99.90;;;;;;4986267;28;20232;-83
2022/10/22 01:45:44;;;;;;;21.17;4.03;;;13.20;99.90;;;;;;4986367;28;20191;-83
2022/10/22 01:48:19;;;;;;;7.03;4.40;;;13.20;99.90;;;;;;4983016;28;20209;-84
2022/10/22 01:51:02;;;;;;;5.70;4.20;;;13.20;99.90;;;;;;4992543;28;20285;-85
2022/10/22 01:53:42;;;;;;;5.80;3.80;;;13.30;99.90;;;;;;4989333;28;20235;-85
2022/10/22 01:56:39;;;;;;;10.73;4.90;;;13.40;99.90;;;;;;4985369;28;20233;-82
2022/10/22 01:59:24;;;;;;;6.03;3.77;;;13.50;99.90;;;;;;4987027;28;20323;-85
2022/10/22 02:02:17;;;;;;;5.77;3.97;;;13.50;99.90;;;;;;4989317;28;20674;-84
2022/10/22 02:04:49;;;;;;;5.77;4.13;;;13.60;99.90;;;;;;4998760;28;20225;-83
2022/10/22 02:07:22;;;;;;;5.33;3.93;;;13.60;99.90;;;;;;4973576;28;20271;-84
2022/10/22 02:09:49;;;;;;;6.77;4.10;;;13.70;99.90;;;;;;4995419;28;20188;-83
2022/10/22 02:12:18;;;;;;;5.77;3.93;;;13.70;99.90;;;;;;4980152;28;20257;-83
2022/10/22 02:14:46;;;;;;;7.53;3.67;;;13.70;99.90;;;;;;4994776;28;20257;-83
2022/10/22 02:17:17;;;;;;;5.00;4.00;;;13.70;99.90;;;;;;4995701;28;20273;-83
2022/10/22 02:20:27;;;;;;;10.37;6.80;;;13.70;99.90;;;;;;4996064;28;20590;-84
2022/10/22 02:22:54;;;;;;;5.27;4.03;;;13.60;99.90;;;;;;4979267;28;20307;-85
2022/10/22 02:25:28;;;;;;;11.07;4.87;;;13.60;99.90;;;;;;4971337;28;20228;-85
2022/10/22 02:28:03;;;;;;;7.53;5.33;;;13.60;99.90;;;;;;4986415;28;20199;-85
2022/10/22 02:30:32;;;;;;;6.10;4.23;;;13.70;99.90;;;;;;4986880;28;20227;-82
2022/10/22 02:33:10;;;;;;;6.93;4.00;;;13.70;99.90;;;;;;4986146;28;20263;-84
2022/10/22 02:35:39;;;;;;;8.43;4.87;;;13.70;99.90;;;;;;4984962;28;20273;-84
2022/10/22 02:38:06;;;;;;;5.27;4.47;;;13.80;99.90;;;;;;4986160;28;20254;-85
2022/10/22 02:40:32;;;;;;;10.77;4.67;;;13.70;99.90;;;;;;4984982;28;20270;-83
2022/10/22 02:42:58;;;;;;;6.33;4.40;;;13.70;99.90;;;;;;4953736;28;20219;-84
2022/10/22 02:45:24;;;;;;;7.00;4.13;;;13.80;99.90;;;;;;4997037;28;20187;-84
2022/10/22 02:47:51;;;;;;;9.67;5.17;;;13.80;99.90;;;;;;4952050;28;20599;-83
2022/10/22 02:50:16;;;;;;;6.50;4.30;;;13.80;99.90;;;;;;4975572;28;20690;-83
2022/10/22 02:52:43;;;;;;;10.37;6.17;;;13.80;99.90;;;;;;4966344;28;20247;-83
2022/10/22 02:55:08;;;;;;;5.30;4.60;;;13.80;99.90;;;;;;4949052;28;20239;-83
2022/10/22 02:57:34;;;;;;;15.53;5.37;;;13.80;99.90;;;;;;4949464;28;20199;-84
2022/10/22 03:00:00;;;;;;;8.47;4.70;;;13.90;99.90;;;;;;4984094;28;20334;-84
2022/10/22 03:02:26;;;;;;;8.37;4.47;;;13.90;99.90;;;;;;4984788;28;20628;-84
2022/10/22 03:04:51;;;;;;;6.37;4.80;;;13.90;99.90;;;;;;4984983;28;20236;-83
2022/10/22 03:07:17;;;;;;;6.83;4.43;;;13.90;99.90;;;;;;4987764;28;21011;-83
2022/10/22 03:09:43;;;;;;;5.57;4.40;;;13.90;99.90;;;;;;4978369;28;20190;-85
2022/10/22 03:12:08;;;;;;;6.47;3.90;;;14.00;99.90;;;;;;4968932;28;20196;-85
2022/10/22 03:14:34;;;;;;;7.07;5.10;;;14.00;99.90;;;;;;4936699;28;20221;-83
2022/10/22 03:17:00;;;;;;;8.93;3.73;;;14.10;99.90;;;;;;4960131;28;20252;-86
2022/10/22 03:19:26;;;;;;;6.27;4.70;;;14.10;99.90;;;;;;4941811;28;20217;-83
2022/10/22 03:22:04;;;;;;;5.63;4.27;;;14.10;99.90;;;;;;4968287;28;20631;-83
2022/10/22 03:24:35;;;;;;;5.60;3.97;;;14.20;99.90;;;;;;4986321;28;20203;-83
2022/10/22 03:27:01;;;;;;;6.63;3.90;;;14.20;99.90;;;;;;4984261;28;20208;-83
2022/10/22 03:29:28;;;;;;;18.97;4.27;;;14.20;99.90;;;;;;4968628;28;20219;-83
2022/10/22 03:31:54;;;;;;;7.10;3.50;;;14.20;99.90;;;;;;4979618;28;20222;-84
2022/10/22 03:34:20;;;;;;;12.07;4.30;;;14.20;99.90;;;;;;4993452;28;20239;-84
2022/10/22 03:36:47;;;;;;;6.10;4.27;;;14.30;99.90;;;;;;4984196;28;20312;-83
2022/10/22 03:39:14;;;;;;;5.83;3.20;;;14.30;99.90;;;;;;5000939;28;20275;-84
2022/10/22 03:41:41;;;;;;;3.90;3.60;;;14.30;99.90;;;;;;4993906;28;20765;-84
2022/10/22 03:44:07;;;;;;;8.47;3.33;;;14.30;99.90;;;;;;4987564;28;20322;-84
2022/10/22 03:46:32;;;;;;;5.20;3.00;;;14.30;99.90;;;;;;4959352;28;20234;-83
2022/10/22 03:48:58;;;;;;;8.27;4.83;;;14.30;99.90;;;;;;4968891;28;20282;-83
2022/10/22 03:51:26;;;;;;;4.03;3.63;;;14.40;99.90;;;;;;4967766;28;20578;-85
2022/10/22 03:53:52;;;;;;;6.07;3.03;;;14.40;99.90;;;;;;4981907;28;20225;-86
2022/10/22 03:56:18;;;;;;;5.00;3.67;;;14.40;99.90;;;;;;4979375;28;20212;-83
2022/10/22 03:58:44;;;;;;;3.77;2.63;;;14.40;99.90;;;;;;4991036;28;20217;-85
2022/10/22 04:01:12;;;;;;;6.40;4.27;;;14.40;99.90;;;;;;4980105;28;20227;-84
2022/10/22 04:03:38;;;;;;;5.70;3.83;;;14.40;99.90;;;;;;4965299;28;20227;-83
2022/10/22 04:06:09;;;;;;;4.23;3.43;;;14.40;99.90;;;;;;4986715;28;20270;-83
2022/10/22 04:08:35;;;;;;;4.80;3.17;;;14.40;99.90;;;;;;4986314;28;20212;-83
2022/10/22 04:11:01;;;;;;;3.40;2.87;;;14.40;99.90;;;;;;4984999;28;20503;-86
2022/10/22 04:13:27;;;;;;;9.77;3.90;;;14.30;99.90;;;;;;4987058;28;20246;-86
2022/10/22 04:15:53;;;;;;;6.67;4.23;;;14.40;99.90;;;;;;4974708;28;20191;-86
2022/10/22 04:18:19;;;;;;;9.40;3.07;;;14.30;99.90;;;;;;4985132;28;20753;-85
2022/10/22 04:20:45;;;;;;;5.40;3.13;;;14.30;99.90;;;;;;4935169;28;20609;-85
2022/10/22 04:23:11;;;;;;;7.50;3.93;;;14.20;99.90;;;;;;4983506;28;20688;-86
2022/10/22 04:25:36;;;;;;;4.20;2.80;;;14.20;99.90;;;;;;4983127;28;20225;-83
2022/10/22 04:28:06;;;;;;;6.73;3.80;;;14.20;99.90;;;;;;4970262;28;20211;-83
2022/10/22 04:30:32;;;;;;;8.17;3.03;;;14.20;99.90;;;;;;4994922;28;20207;-84
2022/10/22 04:32:58;;;;;;;6.40;3.03;;;14.20;99.90;;;;;;4990925;28;20758;-84
2022/10/22 04:35:23;;;;;;;3.77;2.70;;;14.20;99.90;;;;;;4986781;28;20286;-84
2022/10/22 04:37:49;;;;;;;4.70;2.60;;;14.20;99.90;;;;;;4973495;28;20228;-85
2022/10/22 04:40:15;;;;;;;6.23;4.07;;;14.20;99.90;;;;;;4965194;28;21111;-85
2022/10/22 04:42:40;;;;;;;6.17;2.93;;;14.20;99.90;;;;;;4967873;28;20201;-85
2022/10/22 04:45:07;;;;;;;3.07;2.20;;;14.20;99.90;;;;;;5003442;28;20253;-86
2022/10/22 04:47:32;;;;;;;4.33;3.90;;;14.20;99.90;;;;;;4987927;28;20239;-83
2022/10/22 04:49:58;;;;;;;6.03;3.43;;;14.20;99.90;;;;;;4993645;28;20216;-84
2022/10/22 04:52:24;;;;;;;8.43;3.07;;;14.20;99.90;;;;;;4979694;28;20326;-84
2022/10/22 04:54:49;;;;;;;5.83;2.87;;;14.30;99.90;;;;;;5013080;28;20661;-82
2022/10/22 04:57:15;;;;;;;4.30;3.13;;;14.30;99.90;;;;;;4955043;28;20184;-83
2022/10/22 04:59:41;;;;;;;7.80;2.73;;;14.20;99.90;;;;;;4954355;28;20324;-85
2022/10/22 05:02:06;;;;;;;4.57;3.63;;;14.20;99.90;;;;;;4954604;28;20315;-84
2022/10/22 05:04:32;;;;;;;7.83;2.97;;;14.30;99.90;;;;;;4987600;28;20286;-84
2022/10/22 05:06:58;;;;;;;5.73;3.37;;;14.30;99.90;;;;;;4986494;28;20536;-83
2022/10/22 05:09:24;;;;;;;3.97;2.80;;;14.30;99.90;;;;;;4987100;28;20291;-84
2022/10/22 05:11:51;;;;;;;8.77;3.17;;;14.30;99.90;;;;;;4995346;28;20676;-83
2022/10/22 05:14:23;;;;;;;6.57;3.03;;;14.30;99.90;;;;;;4988982;28;20231;-83
2022/10/22 05:16:50;;;;;;;4.57;2.73;;;14.30;99.90;;;;;;4987524;28;20724;-84
2022/10/22 05:19:25;;;;;;;3.80;2.97;;;14.30;99.90;;;;;;4989741;28;20220;-84
2022/10/22 05:21:55;;;;;;;5.10;2.63;;;14.30;99.90;;;;;;4996802;28;20182;-83
2022/10/22 05:24:21;;;;;;;12.13;3.03;;;14.30;99.90;;;;;;4996338;28;20274;-82
2022/10/22 05:26:51;;;;;;;4.57;2.90;;;14.30;99.90;;;;;;4988221;28;20334;-83
2022/10/22 05:29:17;;;;;;;14.67;3.20;;;14.30;99.90;;;;;;4985830;28;20224;-84
2022/10/22 05:31:43;;;;;;;6.97;3.87;;;14.30;99.90;;;;;;4987988;28;20359;-85
2022/10/22 05:34:09;;;;;;;8.87;3.67;;;14.40;99.90;;;;;;4965732;28;20249;-84
2022/10/22 05:36:36;;;;;;;5.30;3.40;;;14.30;99.90;;;;;;4968315;28;20181;-83
2022/10/22 05:39:02;;;;;;;4.53;3.07;;;14.30;99.90;;;;;;4979171;28;20327;-85
2022/10/22 05:41:28;;;;;;;3.97;3.37;;;14.40;99.90;;;;;;4984393;28;20333;-83
2022/10/22 05:43:56;;;;;;;4.13;3.03;;;14.40;99.90;;;;;;4976554;28;20253;-82
2022/10/22 05:46:25;;;;;;;9.17;2.43;;;14.40;99.90;;;;;;4993479;28;20732;-83
2022/10/22 05:48:52;;;;;;;7.33;2.73;;;14.40;99.90;;;;;;5000425;28;20199;-83
2022/10/22 05:51:19;;;;;;;4.17;2.50;;;14.40;99.90;;;;;;4976441;28;20199;-84
2022/10/22 05:53:51;;;;;;;2.80;2.33;;;14.40;99.90;;;;;;4977253;28;20299;-87
2022/10/22 05:56:16;;;;;;;4.13;2.63;;;14.40;99.90;;;;;;4982719;28;20632;-87
2022/10/22 05:58:44;;;;;;;7.13;2.60;;;14.40;99.90;;;;;;4981667;28;20207;-85
2022/10/22 06:01:16;;;;;;;9.27;2.83;;;14.40;99.90;;;;;;4991368;28;20234;-84
2022/10/22 06:03:43;;;;;;;4.10;2.30;;;14.40;99.90;;;;;;4986373;28;20334;-85
2022/10/22 06:06:19;;;;;;;4.40;2.47;;;14.40;99.90;;;;;;4987008;28;20271;-85
2022/10/22 06:08:48;;;;;;;5.67;3.27;;;14.40;99.90;;;;;;4985178;28;20220;-83
2022/10/22 06:11:16;;;;;;;4.17;3.07;;;14.50;99.90;;;;;;4985035;28;20231;-83
2022/10/22 06:13:46;;;;;;;3.70;1.90;;;14.50;99.90;;;;;;4986113;28;20278;-83
2022/10/22 06:16:12;;;;;;;3.40;2.30;;;14.50;99.90;;;;;;4965170;28;20248;-84
2022/10/22 06:18:38;;;;;;;3.30;2.97;;;14.50;99.90;;;;;;4967707;28;20193;-86
2022/10/22 06:21:10;;;;;;;9.07;2.27;;;14.50;99.90;;;;;;4985673;28;20203;-84
2022/10/22 06:23:37;;;;;;;9.00;3.03;;;14.50;99.90;;;;;;4968893;28;20232;-83
2022/10/22 06:26:03;;;;;;;1.87;1.50;;;14.50;99.90;;;;;;4978038;28;20223;-84
2022/10/22 06:28:30;;;;;;;9.30;2.43;;;14.50;99.90;;;;;;4985297;28;20621;-84
2022/10/22 06:30:57;;;;;;;6.80;2.57;;;14.50;99.90;;;;;;5001291;28;20215;-85
2022/10/22 06:33:24;;;;;;;6.20;2.53;;;14.50;99.90;;;;;;4994354;28;20248;-84
2022/10/22 06:35:49;;;;;;;4.53;2.23;;;14.50;99.90;;;;;;4968476;28;20243;-86
2022/10/22 06:38:15;;;;;;;4.37;2.50;;;14.50;99.90;;;;;;4972238;28;20278;-84
2022/10/22 06:40:43;;;;;;;6.90;3.50;;;14.50;99.90;;;;;;4995539;28;20487;-84
2022/10/22 06:43:11;;;;;;;7.70;2.37;;;14.50;99.90;;;;;;4986683;28;20232;-86
2022/10/22 06:45:37;;;;;;;5.23;2.60;;;14.60;99.90;;;;;;4981897;28;20263;-84
2022/10/22 06:48:03;;;;;;;4.13;2.80;;;14.60;99.90;;;;;;4963705;28;20641;-84
2022/10/22 06:50:29;;;;;;;4.00;3.10;;;14.60;99.90;;;;;;4987458;28;20220;-84
2022/10/22 06:52:54;;;;;;;3.67;2.87;;;14.60;99.90;;;;;;4984286;28;20244;-88
2022/10/22 06:55:20;;;;;;;5.10;2.47;;;14.60;99.90;;;;;;4984387;28;20643;-86
2022/10/22 06:57:46;;;;;;;5.07;2.83;;;14.70;99.90;;;;;;4968756;28;20627;-88
2022/10/22 07:00:12;;;;;;;4.13;2.30;;;14.70;99.90;;;;;;4968426;28;20199;-85
2022/10/22 07:02:38;;;;;;;3.60;2.60;;;14.70;99.90;;;;;;4980923;28;20239;-87
2022/10/22 07:05:04;;;;;;;5.13;2.30;;;14.80;99.90;;;;;;4965808;28;20765;-88
2022/10/22 07:07:30;;;;;;;6.43;3.13;;;14.80;99.90;;;;;;4973047;28;20235;-84
2022/10/22 07:09:55;;;;;;;4.03;2.53;;;14.80;99.90;;;;;;4968054;28;20200;-86
2022/10/22 07:12:21;;;;;;;3.57;2.77;;;14.90;99.90;;;;;;4985232;28;20192;-87
2022/10/22 07:14:48;;;;;;;8.60;2.50;;;14.90;99.90;;;;;;4935197;28;20228;-88
2022/10/22 07:17:14;;;;;;;3.23;2.77;;;14.90;99.90;;;;;;4985636;28;20222;-87
2022/10/22 07:19:39;;;;;;;4.47;2.20;;;15.00;99.90;;;;;;4986088;28;20649;-86
2022/10/22 07:22:05;;;;;;;3.10;2.60;;;14.90;99.90;;;;;;4971346;28;20764;-87
2022/10/22 07:24:31;;;;;;;5.07;1.90;;;15.00;99.90;;;;;;4979946;28;20212;-87
2022/10/22 07:26:57;;;;;;;3.57;1.97;;;15.00;99.90;;;;;;4976406;28;20230;-85
2022/10/22 07:29:22;;;;;;;2.83;2.30;;;15.10;99.90;;;;;;4987628;28;20227;-85
2022/10/22 07:31:48;;;;;;;3.83;2.30;;;15.10;99.90;;;;;;4965283;28;20675;-85
2022/10/22 07:34:14;;;;;;;5.17;2.30;;;15.10;99.90;;;;;;4973411;28;20227;-84
2022/10/22 07:36:40;;;;;;;6.20;1.97;;;15.10;99.90;;;;;;4961918;28;20297;-86
2022/10/22 07:39:06;;;;;;;6.17;3.13;;;15.10;99.90;;;;;;4997984;28;20653;-85
2022/10/22 07:41:32;;;;;;;12.63;2.40;;;15.20;99.90;;;;;;4979954;28;20220;-86
2022/10/22 07:43:57;;;;;;;3.13;2.00;;;15.20;99.90;;;;;;4976699;28;20227;-86
2022/10/22 07:46:24;;;;;;;4.87;2.33;;;15.30;99.90;;;;;;4964421;28;20571;-85
2022/10/22 07:48:50;;;;;;;5.00;2.80;;;15.40;99.90;;;;;;4983516;28;20184;-84
2022/10/22 07:51:16;;;;;;;3.00;2.43;;;15.40;99.90;;;;;;4960481;28;20551;-85
2022/10/22 07:53:42;;;;;;;4.87;2.40;;;15.50;99.90;;;;;;4995176;28;20239;-83
2022/10/22 07:56:09;;;;;;;7.60;3.03;;;15.80;99.90;;;;;;4976092;28;20592;-87
2022/10/22 07:58:35;;;;;;;5.10;2.37;;;16.30;99.90;;;;;;4977540;28;20219;-84
2022/10/22 08:01:04;;;;;;;3.77;2.97;;;16.60;99.90;;;;;;4976824;28;20677;-85
2022/10/22 08:03:30;;;;;;;5.80;2.83;;;16.70;99.90;;;;;;4994995;28;20218;-85
2022/10/22 08:05:56;;;;;;;4.37;1.90;;;17.10;99.90;;;;;;4984370;28;20223;-87
2022/10/22 08:08:23;;;;;;;8.10;3.30;;;17.30;99.90;;;;;;4984918;28;20475;-86
2022/10/22 08:10:51;;;;;;;4.90;2.10;;;17.40;99.90;;;;;;4990299;28;20236;-86
2022/10/22 08:13:18;;;;;;;8.37;2.80;;;17.40;99.90;;;;;;4969581;28;20235;-86
2022/10/22 08:15:45;;;;;;;7.43;2.87;;;18.30;99.90;;;;;;4988574;28;20191;-89
2022/10/22 08:18:12;;;;;;;5.07;2.13;;;19.20;99.90;;;;;;4987782;28;20279;-84
2022/10/22 08:20:38;;;;;;;5.03;2.33;;;19.40;99.90;;;;;;4987130;28;20311;-85
2022/10/22 08:23:04;;;;;;;4.40;1.90;;;19.20;99.90;;;;;;4980729;28;20322;-86
2022/10/22 08:25:31;;;;;;;7.20;2.97;;;19.00;99.90;;;;;;4988643;28;20274;-84
2022/10/22 08:27:56;;;;;;;8.80;2.20;;;18.70;99.90;;;;;;4990592;28;20184;-85
2022/10/22 08:30:22;;;;;;;5.03;2.53;;;18.50;99.90;;;;;;4982637;28;20196;-85
2022/10/22 08:32:48;;;;;;;3.57;1.60;;;18.20;99.90;;;;;;4975213;28;20228;-83
2022/10/22 08:35:14;;;;;;;3.33;1.87;;;18.10;99.90;;;;;;4994177;28;20220;-85
2022/10/22 08:37:42;;;;;;;5.90;2.30;;;18.00;99.90;;;;;;5005498;28;20298;-84
2022/10/22 08:40:33;;;;;;;2.97;1.97;;;18.20;99.90;;;;;;4965974;28;20224;-86
2022/10/22 08:43:32;;;;;;;2.20;2.00;;;17.90;99.90;;;;;;4978804;28;20489;-86
2022/10/22 08:46:36;;;;;;;3.07;2.23;;;17.90;99.90;;;;;;5002563;28;20258;-85
2022/10/22 08:49:09;;;;;;;2.00;1.80;;;18.20;99.90;;;;;;4996300;28;20220;-83
2022/10/22 08:51:39;;;;;;;3.73;1.93;;;18.10;99.90;;;;;;5005127;28;20253;-84
2022/10/22 08:54:27;;;;;;;2.50;1.50;;;18.10;99.90;;;;;;4988573;28;20250;-84
2022/10/22 08:57:31;;;;;;;3.77;1.50;;;18.10;99.90;;;;;;4979404;28;20263;-83
2022/10/22 09:00:14;;;;;;;6.80;2.10;;;18.10;99.90;;;;;;4994476;28;20231;-84
2022/10/22 09:03:06;;;;;;;2.40;1.67;;;18.20;99.90;;;;;;4956659;28;20801;-84
2022/10/22 09:05:57;;;;;;;3.17;1.30;;;18.20;99.90;;;;;;4991827;28;20228;-85
2022/10/22 09:08:24;;;;;;;5.43;2.10;;;18.00;99.90;;;;;;4980830;28;20329;-85
2022/10/22 09:11:05;;;;;;;5.33;1.37;;;17.70;99.90;;;;;;4986942;28;20220;-84
2022/10/22 09:13:32;;;;;;;10.37;1.83;;;17.50;99.90;;;;;;5004960;28;20307;-84
2022/10/22 09:16:08;;;;;;;3.27;2.13;;;17.40;99.90;;;;;;4978696;28;20246;-85
2022/10/22 09:18:57;;;;;;;3.00;2.33;;;17.40;99.90;;;;;;4978985;28;20206;-84
2022/10/22 09:21:41;;;;;;;7.20;2.73;;;17.40;99.90;;;;;;4995455;28;20219;-85
2022/10/22 09:24:44;;;;;;;4.73;2.43;;;17.40;99.90;;;;;;4995179;28;20266;-84
2022/10/22 09:27:12;;;;;;;10.93;1.60;;;17.40;99.90;;;;;;4991140;28;20308;-85
2022/10/22 09:29:38;;;;;;;5.63;1.67;;;17.30;99.90;;;;;;4991862;28;20216;-86
2022/10/22 09:32:04;;;;;;;2.63;1.87;;;17.40;99.90;;;;;;4957240;28;20250;-84
2022/10/22 09:34:30;;;;;;;5.53;1.40;;;17.50;99.90;;;;;;4971193;28;20568;-85
2022/10/22 09:37:01;;;;;;;8.30;1.90;;;17.70;99.90;;;;;;4985980;28;20180;-86
2022/10/22 09:39:43;;;;;;;7.57;2.13;;;17.60;99.90;;;;;;4997508;28;20283;-85
2022/10/22 09:42:12;;;;;;;4.80;1.73;;;17.70;99.90;;;;;;4966696;28;20224;-86
2022/10/22 09:44:38;;;;;;;3.53;1.77;;;17.80;99.90;;;;;;4965374;28;20612;-86
2022/10/22 09:47:30;;;;;;;2.67;1.40;;;17.60;99.90;;;;;;4997499;28;20239;-85
2022/10/22 09:50:26;;;;;;;1.57;1.20;;;17.50;99.90;;;;;;4965407;28;20271;-86
2022/10/22 09:53:16;;;;;;;2.43;2.07;;;17.40;99.90;;;;;;4966104;28;20236;-86
2022/10/22 09:55:42;;;;;;;2.80;1.30;;;17.50;99.90;;;;;;4963617;28;20220;-86
2022/10/22 09:58:12;;;;;;;4.17;1.50;;;17.50;99.90;;;;;;4997690;28;20232;-86
2022/10/22 10:00:40;;;;;;;6.53;2.50;;;17.70;99.90;;;;;;4949163;28;20395;-85
2022/10/22 10:03:14;;;;;;;3.93;2.40;;;17.70;99.90;;;;;;4982222;28;20219;-85
2022/10/22 10:05:40;;;;;;;2.50;2.30;;;17.70;99.90;;;;;;4966547;28;20590;-85
2022/10/22 10:08:17;;;;;;;5.30;2.07;;;17.80;99.90;;;;;;4949597;28;20229;-85
2022/10/22 10:10:45;;;;;;;3.47;1.83;;;17.80;99.90;;;;;;4966475;28;20231;-84
2022/10/22 10:13:26;;;;;;;4.83;2.73;;;17.80;99.90;;;;;;4966632;28;20227;-85
2022/10/22 10:16:07;;;;;;;4.53;2.27;;;17.90;99.90;;;;;;4966673;28;20207;-85
2022/10/22 10:19:01;;;;;;;3.57;2.57;;;17.80;99.90;;;;;;4967528;28;20296;-87
2022/10/22 10:21:56;;;;;;;3.23;2.47;;;17.50;99.90;;;;;;5004338;28;20289;-86
2022/10/22 10:24:41;;;;;;;3.40;2.47;;;17.70;99.90;;;;;;4986969;28;20573;-85
2022/10/22 10:27:14;;;;;;;4.03;2.27;;;17.80;99.90;;;;;;4995898;28;20246;-87
2022/10/22 10:29:56;;;;;;;3.97;2.03;;;18.00;99.90;;;;;;5011039;28;20220;-86
2022/10/22 10:32:50;;;;;;;3.87;1.93;;;18.30;99.90;;;;;;5011534;28;20273;-86
2022/10/22 10:35:33;;;;;;;9.50;2.67;;;18.30;99.90;;;;;;4997428;28;20238;-85
2022/10/22 10:38:05;;;;;;;3.43;2.37;;;18.30;99.90;;;;;;4994331;28;20219;-87
2022/10/22 10:40:50;;;;;;;4.90;2.70;;;18.50;99.90;;;;;;4990345;28;20243;-85
2022/10/22 10:43:31;;;;;;;6.70;2.57;;;18.40;99.90;;;;;;4988959;28;20227;-85
2022/10/22 10:46:24;;;;;;;6.33;2.43;;;18.20;99.90;;;;;;4997350;28;20315;-84
2022/10/22 10:49:04;;;;;;;2.03;1.80;;;18.10;99.90;;;;;;4993921;28;20193;-86
2022/10/22 10:51:42;;;;;;;4.53;2.13;;;18.00;99.90;;;;;;4984665;28;20188;-86
2022/10/22 10:54:30;;;;;;;8.10;2.57;;;17.80;99.90;;;;;;5012410;28;20280;-86
2022/10/22 10:57:03;;;;;;;3.53;1.83;;;17.60;99.90;;;;;;4994227;28;20699;-85
2022/10/22 10:59:41;;;;;;;2.60;2.40;;;17.50;99.90;;;;;;4991943;28;20249;-85
2022/10/22 11:02:18;;;;;;;4.67;1.93;;;17.40;99.90;;;;;;4985657;28;20232;-83
2022/10/22 11:05:02;;;;;;;4.27;2.43;;;17.30;99.90;;;;;;4980097;28;20235;-83
2022/10/22 11:07:33;;;;;;;3.93;2.00;;;17.30;99.90;;;;;;4995680;28;20219;-84
2022/10/22 11:10:03;;;;;;;3.97;2.27;;;17.30;99.90;;;;;;4993505;28;20711;-83
2022/10/22 11:12:41;;;;;;;2.33;1.40;;;17.50;99.90;;;;;;4985445;28;20211;-85
2022/10/22 11:15:24;;;;;;;2.20;1.90;;;17.30;99.90;;;;;;4986341;28;20601;-86
2022/10/22 11:17:54;;;;;;;4.20;2.03;;;17.30;99.90;;;;;;4983298;28;20220;-86
2022/10/22 11:20:24;;;;;;;2.90;2.07;;;17.40;99.90;;;;;;4979493;28;20282;-85
2022/10/22 11:23:05;;;;;;;6.93;2.23;;;17.70;99.90;;;;;;4984162;28;20207;-85
2022/10/22 11:25:49;;;;;;;4.30;1.93;;;17.80;99.90;;;;;;4985258;28;20280;-85
2022/10/22 11:28:41;;;;;;;8.27;3.03;;;18.30;99.90;;;;;;4987397;28;20224;-86
2022/10/22 11:31:14;;;;;;;5.37;3.03;;;18.30;99.90;;;;;;4969802;28;21185;-85
2022/10/22 11:34:02;;;;;;;3.93;2.03;;;18.20;99.90;;;;;;5000991;28;20258;-84
2022/10/22 11:36:29;;;;;;;3.27;2.10;;;18.20;99.90;;;;;;4985811;28;20219;-86
2022/10/22 11:38:55;;;;;;;6.20;1.97;;;18.00;99.90;;;;;;4965801;28;20232;-85
2022/10/22 11:41:29;;;;;;;5.53;2.53;;;17.80;99.90;;;;;;4948822;28;20254;-86
2022/10/22 11:44:21;;;;;;;4.13;2.10;;;17.60;99.90;;;;;;4997058;28;20712;-83
2022/10/22 11:46:54;;;;;;;5.77;2.70;;;17.40;99.90;;;;;;4984810;28;20221;-83
2022/10/22 11:49:41;;;;;;;2.57;2.03;;;17.50;99.90;;;;;;4968184;28;21081;-84
2022/10/22 11:52:37;;;;;;;5.03;1.80;;;17.60;99.90;;;;;;4979524;28;20230;-83
2022/10/22 11:55:30;;;;;;;8.10;2.17;;;17.60;99.90;;;;;;4982786;28;20239;-84
2022/10/22 11:57:59;;;;;;;2.33;1.03;;;17.50;99.90;;;;;;4988175;28;20199;-84
2022/10/22 12:00:41;;;;;;;3.47;1.90;;;17.60;99.90;;;;;;4988624;28;20226;-86
2022/10/22 12:03:39;;;;;;;2.47;1.20;;;17.70;99.90;;;;;;5004243;28;20208;-84
2022/10/22 12:06:11;;;;;;;3.40;1.53;;;17.80;99.90;;;;;;4985088;28;20733;-85
2022/10/22 12:08:52;;;;;;;3.47;1.17;;;17.90;99.90;;;;;;4989370;28;20527;-84
2022/10/22 12:11:35;;;;;;;3.00;1.07;;;18.00;99.90;;;;;;4989335;28;20233;-84
2022/10/22 12:14:27;;;;;;;2.23;0.93;;;18.10;99.90;;;;;;4992323;28;20228;-83
2022/10/22 12:17:07;;;;;;;1.63;0.80;;;17.90;99.90;;;;;;4978801;28;20224;-84
2022/10/22 12:19:50;;;;;;;5.33;1.20;;;17.90;99.90;;;;;;4987114;28;20215;-87
2022/10/22 12:22:31;;;;;;;3.63;1.50;;;17.80;99.90;;;;;;4988875;28;20273;-83
2022/10/22 12:25:08;;;;;;;3.50;1.10;;;17.90;99.90;;;;;;4988837;28;20231;-83
2022/10/22 12:27:39;;;;;;;2.27;1.43;;;17.90;99.90;;;;;;4987999;28;20184;-87
2022/10/22 12:30:21;;;;;;;6.27;1.77;;;18.00;99.90;;;;;;4995749;28;20271;-86
2022/10/22 12:32:46;;;;;;;1.83;1.23;;;18.10;99.90;;;;;;4987191;28;20217;-85
2022/10/22 12:35:18;;;;;;;1.57;1.13;;;17.90;99.90;;;;;;4935938;28;20227;-84
2022/10/22 12:37:44;;;;;;;1.53;0.70;;;18.00;99.90;;;;;;4977859;28;20227;-85
2022/10/22 12:40:17;;;;;;;7.53;1.67;;;17.90;99.90;;;;;;4981999;28;20278;-85
2022/10/22 12:43:00;;;;;;;0.87;0.80;;;17.90;99.90;;;;;;4967625;28;20200;-85
2022/10/22 12:45:29;;;;;;;6.23;1.43;;;17.90;99.90;;;;;;5010398;28;20210;-84
2022/10/22 12:48:12;;;;;;;5.70;1.13;;;17.90;99.90;;;;;;4993104;28;20223;-84
2022/10/22 12:50:44;;;;;;;2.33;0.77;;;17.90;99.90;;;;;;4986366;28;20282;-85
2022/10/22 12:53:17;;;;;;;1.10;0.40;;;17.90;99.90;;;;;;4986891;28;20270;-87
2022/10/22 12:55:48;;;;;;;4.87;1.43;;;18.00;99.90;;;;;;4990363;28;20337;-83
2022/10/22 12:58:20;;;;;;;7.77;0.70;;;18.30;99.90;;;;;;5010972;28;20584;-85
2022/10/22 13:00:47;;;;;;;3.10;0.70;;;18.30;99.90;;;;;;5007826;28;20198;-84
2022/10/22 13:03:34;;;;;;;1.77;0.90;;;18.40;99.90;;;;;;4986265;28;20246;-84
2022/10/22 13:06:18;;;;;;;4.63;1.03;;;18.40;99.90;;;;;;4985558;28;20270;-84
2022/10/22 13:08:55;;;;;;;3.53;0.70;;;18.80;99.90;;;;;;4994970;28;20266;-84
2022/10/22 13:11:21;;;;;;;3.57;0.70;;;19.00;99.90;;;;;;4996412;28;20222;-84